Time;durP1;ratioP1;P1;durP2;ratioP2;P2;SDS_P1;SDS_P2;PMS_P1;PMS_P2;Temp;Humidity;BMP_temperature;BMP_pressure;BME280_temperature;BME280_humidity;BME280_pressure;Samples;Min_cycle;Max_cycle;Signal;HPM_P1;HPM_P2
2022/02/23 00:01:05;;;;;;;2.03;1.93;;;;;;;6.81;92.04;97162.72;5074684;28;20177;-63
2022/02/23 00:03:30;;;;;;;2.37;2.00;;;;;;;6.84;91.50;97157.16;5073379;28;20186;-63
2022/02/23 00:05:55;;;;;;;1.93;1.90;;;;;;;6.81;92.13;97170.53;5074980;28;20184;-63
2022/02/23 00:08:21;;;;;;;4.30;2.27;;;;;;;6.82;92.04;97171.34;5075286;28;20177;-63
2022/02/23 00:10:46;;;;;;;2.30;2.20;;;;;;;7.00;91.40;97172.44;5074823;28;20256;-63
2022/02/23 00:13:12;;;;;;;2.10;2.00;;;;;;;6.87;92.10;97175.00;5074426;28;20642;-63
2022/02/23 00:15:37;;;;;;;2.20;2.03;;;;;;;6.81;92.56;97170.53;5074264;28;20215;-63
2022/02/23 00:18:03;;;;;;;1.90;1.80;;;;;;;6.85;92.52;97171.78;5074567;28;20564;-64
2022/02/23 00:20:28;;;;;;;1.90;1.80;;;;;;;6.87;92.90;97168.97;5073375;28;20184;-64
2022/02/23 00:22:54;;;;;;;2.40;2.30;;;;;;;6.95;92.89;97179.25;5074351;28;20189;-63
2022/02/23 00:25:19;;;;;;;2.37;2.10;;;;;;;6.80;93.51;97176.75;5073768;28;20229;-64
2022/02/23 00:27:45;;;;;;;3.90;2.10;;;;;;;6.89;94.13;97187.84;5074373;28;20291;-63
2022/02/23 00:30:10;;;;;;;2.83;2.03;;;;;;;6.88;93.88;97183.63;5074599;28;20649;-63
2022/02/23 00:32:36;;;;;;;2.50;2.30;;;;;;;6.86;94.08;97186.41;5074247;28;20197;-63
2022/02/23 00:35:01;;;;;;;2.27;2.17;;;;;;;6.90;94.63;97187.66;5074839;28;20177;-63
2022/02/23 00:37:27;;;;;;;2.33;2.17;;;;;;;7.03;94.12;97199.91;5072904;28;20498;-63
2022/02/23 00:39:52;;;;;;;2.37;2.10;;;;;;;7.07;93.81;97201.16;5074297;28;20522;-64
2022/02/23 00:42:18;;;;;;;2.70;2.00;;;;;;;6.89;95.38;97199.06;5073288;28;20256;-63
2022/02/23 00:44:43;;;;;;;1.97;1.87;;;;;;;6.94;95.63;97204.50;5074408;28;20182;-63
2022/02/23 00:47:11;;;;;;;1.87;1.77;;;;;;;6.99;95.67;97204.72;5074418;28;20646;-63
2022/02/23 00:49:37;;;;;;;2.57;2.30;;;;;;;7.08;95.57;97205.34;5073848;28;20185;-63
2022/02/23 00:52:06;;;;;;;3.07;2.13;;;;;;;6.92;97.04;97205.66;5074171;28;20188;-63
2022/02/23 00:54:32;;;;;;;2.63;1.90;;;;;;;6.85;97.49;97210.06;5073704;28;20630;-64
2022/02/23 00:56:58;;;;;;;2.50;1.80;;;;;;;6.97;97.64;97216.31;5074027;28;20207;-63
2022/02/23 00:59:23;;;;;;;2.77;2.00;;;;;;;6.95;98.40;97216.53;5073873;28;20272;-63
2022/02/23 01:01:48;;;;;;;2.63;1.83;;;;;;;6.90;98.97;97221.53;5073671;28;20267;-63
2022/02/23 01:04:14;;;;;;;2.80;1.90;;;;;;;6.90;99.44;97224.13;5074009;28;20184;-63
2022/02/23 01:06:39;;;;;;;3.47;2.50;;;;;;;6.99;99.41;97217.75;5072722;28;20208;-63
2022/02/23 01:09:05;;;;;;;3.33;2.07;;;;;;;6.83;100.00;97218.06;5073442;28;20566;-64
2022/02/23 01:11:30;;;;;;;2.73;1.80;;;;;;;6.96;99.90;97217.34;5072015;28;20570;-63
2022/02/23 01:13:56;;;;;;;5.23;2.37;;;;;;;6.92;100.00;97224.72;5073693;28;20203;-63
2022/02/23 01:16:21;;;;;;;3.47;2.47;;;;;;;6.98;100.00;97220.53;5073804;28;20576;-63
2022/02/23 01:18:47;;;;;;;2.60;2.40;;;;;;;7.06;100.00;97215.97;5072946;28;20731;-63
2022/02/23 01:21:12;;;;;;;2.53;2.37;;;;;;;6.99;100.00;97216.94;5072999;28;20216;-63
2022/02/23 01:23:38;;;;;;;4.67;2.17;;;;;;;6.93;100.00;97223.72;5072291;28;20216;-63
2022/02/23 01:26:04;;;;;;;3.83;2.60;;;;;;;6.95;100.00;97228.75;5073414;28;20204;-63
2022/02/23 01:28:30;;;;;;;2.77;2.33;;;;;;;6.96;100.00;97230.38;5073008;28;20177;-63
2022/02/23 01:30:56;;;;;;;2.67;2.47;;;;;;;7.00;100.00;97234.19;5072886;28;20587;-64
2022/02/23 01:33:22;;;;;;;2.30;2.20;;;;;;;6.90;100.00;97233.75;5071921;28;20196;-63
2022/02/23 01:35:47;;;;;;;2.03;2.00;;;;;;;6.89;100.00;97235.53;5073049;28;20663;-63
2022/02/23 01:38:13;;;;;;;2.93;2.83;;;;;;;6.91;100.00;97243.16;5072717;28;20502;-63
2022/02/23 01:40:38;;;;;;;2.67;2.47;;;;;;;6.76;100.00;97239.84;5072777;28;20186;-63
2022/02/23 01:43:04;;;;;;;2.20;2.10;;;;;;;6.88;100.00;97244.34;5072946;28;20185;-63
2022/02/23 01:45:29;;;;;;;2.33;2.23;;;;;;;6.87;100.00;97250.53;5072708;28;20199;-63
2022/02/23 01:47:54;;;;;;;2.73;2.63;;;;;;;6.91;100.00;97243.16;5072834;28;20563;-65
2022/02/23 01:50:20;;;;;;;3.03;2.50;;;;;;;6.92;100.00;97249.97;5070952;28;20197;-64
2022/02/23 01:52:46;;;;;;;2.43;2.30;;;;;;;6.81;100.00;97274.75;5071141;28;20335;-63
2022/02/23 01:55:12;;;;;;;2.73;2.37;;;;;;;6.62;100.00;97350.97;5072506;28;20204;-64
2022/02/23 01:57:38;;;;;;;4.10;2.30;;;;;;;5.13;99.35;97337.63;5072580;28;20212;-64
2022/02/23 02:00:06;;;;;;;2.10;1.90;;;;;;;5.15;100.00;97353.03;5072738;28;20323;-63
2022/02/23 02:02:31;;;;;;;5.33;2.07;;;;;;;4.29;100.00;97371.63;5072779;28;20288;-64
2022/02/23 02:04:56;;;;;;;3.80;2.80;;;;;;;3.80;100.00;97371.88;5072843;28;20192;-64
2022/02/23 02:07:22;;;;;;;1.97;1.73;;;;;;;3.83;100.00;97386.31;5071308;28;20189;-65
2022/02/23 02:09:47;;;;;;;2.73;1.80;;;;;;;3.85;100.00;97390.34;5072260;28;20242;-65
2022/02/23 02:12:13;;;;;;;3.73;2.23;;;;;;;3.72;100.00;97387.50;5072892;28;20220;-64
2022/02/23 02:14:38;;;;;;;3.70;1.80;;;;;;;3.72;100.00;97396.09;5072962;28;20256;-64
2022/02/23 02:17:04;;;;;;;3.37;1.70;;;;;;;3.54;100.00;97390.31;5072655;28;20257;-63
2022/02/23 02:19:30;;;;;;;9.30;1.97;;;;;;;3.67;100.00;97402.75;5072601;28;20278;-64
2022/02/23 02:22:04;;;;;;;5.37;2.00;;;;;;;3.58;100.00;97398.56;5072442;28;20188;-63
2022/02/23 02:24:41;;;;;;;3.63;1.60;;;;;;;3.69;100.00;97400.78;5072472;28;20234;-64
2022/02/23 02:27:14;;;;;;;4.43;1.53;;;;;;;3.80;100.00;97405.59;5072903;28;20176;-64
2022/02/23 02:29:41;;;;;;;7.43;1.50;;;;;;;3.94;100.00;97402.31;5072337;28;20177;-64
2022/02/23 02:32:08;;;;;;;3.13;1.57;;;;;;;3.77;100.00;97405.94;5072234;28;20260;-64
2022/02/23 02:34:34;;;;;;;1.97;1.40;;;;;;;3.67;100.00;97407.94;5072862;28;20176;-65
2022/02/23 02:37:00;;;;;;;5.17;1.53;;;;;;;3.73;100.00;97405.44;5070015;28;20308;-64
2022/02/23 02:39:25;;;;;;;3.53;1.50;;;;;;;3.65;100.00;97408.09;5072723;28;20608;-64
2022/02/23 02:41:52;;;;;;;7.40;1.83;;;;;;;3.68;100.00;97407.75;5072383;28;20250;-64
2022/02/23 02:44:18;;;;;;;5.30;1.70;;;;;;;3.87;100.00;97419.50;5072378;28;20177;-64
2022/02/23 02:46:44;;;;;;;4.63;1.90;;;;;;;3.86;100.00;97419.66;5072299;28;20181;-64
2022/02/23 02:49:09;;;;;;;5.60;1.93;;;;;;;3.94;100.00;97420.47;5072478;28;20188;-65
2022/02/23 02:51:36;;;;;;;5.57;1.70;;;;;;;4.04;100.00;97422.84;5072079;28;20610;-64
2022/02/23 02:54:02;;;;;;;2.63;1.20;;;;;;;4.03;100.00;97424.63;5071896;28;20201;-64
2022/02/23 02:56:27;;;;;;;7.33;1.93;;;;;;;4.02;100.00;97425.59;5072694;28;20508;-64
2022/02/23 02:58:53;;;;;;;6.07;1.93;;;;;;;4.06;100.00;97432.06;5071925;28;20226;-64
2022/02/23 03:01:20;;;;;;;4.83;1.57;;;;;;;3.97;100.00;97440.03;5073124;28;20185;-64
2022/02/23 03:03:46;;;;;;;4.17;1.57;;;;;;;4.06;100.00;97450.22;5072240;28;20182;-64
2022/02/23 03:06:12;;;;;;;2.27;1.40;;;;;;;4.23;100.00;97448.38;5073733;28;20219;-64
2022/02/23 03:08:37;;;;;;;6.80;2.00;;;;;;;4.21;100.00;97444.31;5075822;28;20207;-64
2022/02/23 03:11:02;;;;;;;4.93;1.47;;;;;;;4.19;100.00;97455.66;5075919;28;20177;-64
2022/02/23 03:13:28;;;;;;;4.93;1.90;;;;;;;4.14;100.00;97457.16;5075737;28;20527;-64
2022/02/23 03:15:53;;;;;;;3.17;1.70;;;;;;;4.13;100.00;97450.34;5076237;28;20178;-63
2022/02/23 03:18:18;;;;;;;4.13;1.83;;;;;;;4.19;100.00;97460.03;5075901;28;20657;-65
2022/02/23 03:20:44;;;;;;;4.20;2.10;;;;;;;4.30;100.00;97458.84;5075150;28;20259;-64
2022/02/23 03:23:09;;;;;;;5.77;2.20;;;;;;;4.26;100.00;97461.00;5074947;28;20185;-64
2022/02/23 03:25:35;;;;;;;8.67;2.07;;;;;;;4.35;100.00;97457.34;5074860;28;20249;-64
2022/02/23 03:28:00;;;;;;;5.73;2.07;;;;;;;4.25;100.00;97454.19;5075210;28;20242;-64
2022/02/23 03:30:25;;;;;;;9.97;1.70;;;;;;;4.26;100.00;97467.97;5074278;28;20194;-63
2022/02/23 03:32:51;;;;;;;8.73;1.93;;;;;;;4.28;100.00;97464.22;5075358;28;20267;-64
2022/02/23 03:35:16;;;;;;;9.47;1.97;;;;;;;4.33;100.00;97464.53;5074505;28;20185;-64
2022/02/23 03:37:42;;;;;;;8.73;2.00;;;;;;;4.35;100.00;97472.13;5074202;28;20629;-64
2022/02/23 03:40:07;;;;;;;6.60;1.73;;;;;;;4.41;100.00;97474.84;5074842;28;20182;-64
2022/02/23 03:42:33;;;;;;;4.63;2.27;;;;;;;4.31;100.00;97473.44;5075010;28;20200;-64
2022/02/23 03:44:58;;;;;;;6.90;1.43;;;;;;;4.16;100.00;97476.78;5073875;28;20181;-65
2022/02/23 03:47:24;;;;;;;5.30;2.10;;;;;;;4.03;100.00;97478.28;5073998;28;20204;-64
2022/02/23 03:49:49;;;;;;;6.07;2.03;;;;;;;4.03;100.00;97480.88;5074801;28;20177;-63
2022/02/23 03:52:14;;;;;;;4.33;1.83;;;;;;;4.15;100.00;97492.50;5074452;28;20192;-64
2022/02/23 03:54:40;;;;;;;7.57;2.07;;;;;;;4.08;100.00;97500.13;5074986;28;20181;-64
2022/02/23 03:57:05;;;;;;;6.27;1.90;;;;;;;4.09;100.00;97516.50;5074628;28;20618;-64
2022/02/23 03:59:31;;;;;;;6.70;1.90;;;;;;;4.07;100.00;97510.66;5074731;28;20176;-63
2022/02/23 04:01:56;;;;;;;3.13;1.77;;;;;;;4.02;100.00;97518.16;5074582;28;20186;-64
2022/02/23 04:04:22;;;;;;;8.47;2.27;;;;;;;4.06;100.00;97522.84;5073243;28;20279;-64
2022/02/23 04:06:49;;;;;;;7.20;1.93;;;;;;;4.05;100.00;97525.59;5074467;28;20181;-64
2022/02/23 04:09:15;;;;;;;8.43;2.33;;;;;;;4.05;100.00;97531.59;5073463;28;20693;-64
2022/02/23 04:11:41;;;;;;;4.13;1.40;;;;;;;4.14;100.00;97525.41;5074431;28;20228;-64
2022/02/23 04:14:07;;;;;;;6.83;1.83;;;;;;;4.19;100.00;97528.31;5074486;28;20519;-63
2022/02/23 04:16:34;;;;;;;5.53;1.80;;;;;;;4.21;100.00;97537.72;5073745;28;20204;-64
2022/02/23 04:18:59;;;;;;;7.63;1.77;;;;;;;4.36;100.00;97531.63;5073168;28;20639;-64
2022/02/23 04:21:25;;;;;;;6.67;2.17;;;;;;;4.29;100.00;97540.28;5074057;28;20692;-64
2022/02/23 04:23:50;;;;;;;9.30;2.00;;;;;;;4.37;100.00;97548.03;5073233;28;20541;-64
2022/02/23 04:26:17;;;;;;;4.70;2.23;;;;;;;4.47;100.00;97541.66;5074642;28;20173;-64
2022/02/23 04:28:44;;;;;;;7.50;2.40;;;;;;;4.44;100.00;97559.34;5074456;28;20181;-64
2022/02/23 04:31:09;;;;;;;7.60;2.27;;;;;;;4.47;100.00;97562.41;5074334;28;20173;-64
2022/02/23 04:33:35;;;;;;;6.57;2.23;;;;;;;4.47;100.00;97565.00;5074328;28;20584;-64
2022/02/23 04:36:01;;;;;;;8.20;2.00;;;;;;;4.57;100.00;97562.19;5074400;28;20182;-64
2022/02/23 04:38:27;;;;;;;5.47;1.80;;;;;;;4.52;100.00;97570.50;5073604;28;20299;-64
2022/02/23 04:40:52;;;;;;;6.70;1.47;;;;;;;4.59;100.00;97574.03;5073977;28;20177;-64
2022/02/23 04:43:17;;;;;;;3.50;1.40;;;;;;;4.68;100.00;97581.81;5074137;28;20185;-64
2022/02/23 04:45:43;;;;;;;4.37;1.90;;;;;;;4.66;100.00;97581.97;5073888;28;20174;-64
2022/02/23 04:48:08;;;;;;;6.27;2.23;;;;;;;4.70;100.00;97585.03;5074018;28;20686;-63
2022/02/23 04:50:34;;;;;;;5.67;1.50;;;;;;;4.67;100.00;97582.78;5073861;28;20185;-63
2022/02/23 04:53:00;;;;;;;7.30;1.77;;;;;;;4.63;100.00;97600.47;5073566;28;20219;-64
2022/02/23 04:55:26;;;;;;;8.37;1.90;;;;;;;4.65;100.00;97582.94;5072889;28;20213;-63
2022/02/23 04:57:51;;;;;;;5.17;2.03;;;;;;;4.62;100.00;97598.06;5073747;28;20298;-63
2022/02/23 05:00:17;;;;;;;6.63;1.97;;;;;;;4.47;100.00;97605.72;5073467;28;20184;-64
2022/02/23 05:02:42;;;;;;;5.33;2.00;;;;;;;4.47;100.00;97603.13;5073906;28;20644;-63
2022/02/23 05:05:08;;;;;;;6.60;1.60;;;;;;;4.36;100.00;97606.91;5073581;28;20706;-63
2022/02/23 05:07:34;;;;;;;12.93;2.27;;;;;;;4.28;100.00;97599.16;5073558;28;20177;-64
2022/02/23 05:10:00;;;;;;;3.03;1.93;;;;;;;4.17;100.00;97608.09;5073183;28;20614;-64
2022/02/23 05:12:26;;;;;;;5.43;2.50;;;;;;;4.36;100.00;97613.88;5073941;28;20177;-64
2022/02/23 05:14:51;;;;;;;8.37;2.10;;;;;;;4.27;100.00;97617.47;5073841;28;20174;-64
2022/02/23 05:17:17;;;;;;;4.03;1.97;;;;;;;4.08;100.00;97618.63;5073385;28;20677;-63
2022/02/23 05:19:44;;;;;;;3.87;1.77;;;;;;;4.00;100.00;97619.47;5073496;28;20181;-64
2022/02/23 05:22:09;;;;;;;8.30;2.20;;;;;;;3.92;100.00;97621.25;5073182;28;20614;-64
2022/02/23 05:24:35;;;;;;;7.87;2.13;;;;;;;3.74;100.00;97622.25;5072295;28;20273;-64
2022/02/23 05:27:02;;;;;;;2.20;1.40;;;;;;;3.62;100.00;97618.34;5073419;28;20264;-63
2022/02/23 05:29:28;;;;;;;9.77;2.30;;;;;;;3.64;100.00;97624.19;5073388;28;20649;-63
2022/02/23 05:31:53;;;;;;;8.00;2.93;;;;;;;3.71;100.00;97626.94;5073233;28;20169;-64
2022/02/23 05:34:19;;;;;;;10.67;2.37;;;;;;;3.66;100.00;97624.84;5073358;28;20200;-63
2022/02/23 05:36:46;;;;;;;2.43;1.73;;;;;;;3.56;100.00;97624.22;5073165;28;20181;-64
2022/02/23 05:39:11;;;;;;;4.50;2.03;;;;;;;3.48;100.00;97628.56;5073003;28;20536;-64
2022/02/23 05:41:37;;;;;;;8.83;2.73;;;;;;;3.58;100.00;97631.81;5072390;28;20180;-63
2022/02/23 05:44:03;;;;;;;6.60;2.00;;;;;;;3.43;100.00;97630.84;5072384;28;20177;-64
2022/02/23 05:46:28;;;;;;;10.47;2.67;;;;;;;3.50;100.00;97632.63;5072944;28;20638;-63
2022/02/23 05:48:54;;;;;;;5.87;2.23;;;;;;;3.51;100.00;97633.44;5072544;28;20209;-63
2022/02/23 05:51:32;;;;;;;6.63;2.23;;;;;;;3.42;100.00;97631.78;5071980;28;20184;-64
2022/02/23 05:53:58;;;;;;;10.67;2.87;;;;;;;3.48;100.00;97642.34;5072902;28;20678;-64
2022/02/23 05:56:23;;;;;;;7.57;2.77;;;;;;;3.44;100.00;97645.41;5072969;28;20247;-63
2022/02/23 05:58:49;;;;;;;6.20;3.03;;;;;;;3.40;100.00;97655.25;5072674;28;20641;-63
2022/02/23 06:01:14;;;;;;;7.50;3.30;;;;;;;3.27;100.00;97660.94;5072414;28;20173;-64
2022/02/23 06:03:40;;;;;;;5.97;2.97;;;;;;;3.40;100.00;97657.06;5072909;28;20173;-63
2022/02/23 06:06:05;;;;;;;7.37;2.97;;;;;;;3.36;100.00;97664.34;5072996;28;20209;-64
2022/02/23 06:08:31;;;;;;;2.97;2.57;;;;;;;3.41;100.00;97666.44;5072541;28;20185;-63
2022/02/23 06:10:56;;;;;;;5.30;2.77;;;;;;;3.34;100.00;97671.47;5071227;28;20181;-63
2022/02/23 06:13:21;;;;;;;4.53;2.73;;;;;;;3.29;100.00;97671.94;5072438;28;20205;-63
2022/02/23 06:15:47;;;;;;;12.37;3.37;;;;;;;3.26;100.00;97677.44;5072753;28;20237;-63
2022/02/23 06:18:13;;;;;;;7.10;3.33;;;;;;;3.25;100.00;97682.78;5072757;28;20290;-63
2022/02/23 06:20:38;;;;;;;12.77;3.00;;;;;;;3.25;100.00;97693.94;5072123;28;20185;-63
2022/02/23 06:23:03;;;;;;;10.93;3.50;;;;;;;3.43;100.00;97693.81;5072637;28;20649;-63
2022/02/23 06:25:29;;;;;;;9.37;3.30;;;;;;;3.50;100.00;97700.00;5071784;28;20212;-63
2022/02/23 06:27:54;;;;;;;7.47;3.17;;;;;;;3.53;100.00;97699.66;5071439;28;20208;-63
2022/02/23 06:30:19;;;;;;;9.63;3.20;;;;;;;3.54;100.00;97700.47;5072736;28;20501;-63
2022/02/23 06:32:45;;;;;;;6.87;3.10;;;;;;;3.72;100.00;97706.34;5072426;28;20193;-63
2022/02/23 06:35:11;;;;;;;11.23;3.63;;;;;;;3.69;100.00;97702.28;5072607;28;20691;-63
2022/02/23 06:37:36;;;;;;;4.23;3.00;;;;;;;3.81;100.00;97717.53;5072498;28;20190;-63
2022/02/23 06:40:03;;;;;;;6.73;2.60;;;;;;;3.97;100.00;97725.31;5072099;28;20238;-63
2022/02/23 06:42:28;;;;;;;4.97;3.57;;;;;;;4.05;100.00;97725.31;5076289;28;20181;-63
2022/02/23 06:44:55;;;;;;;8.90;3.60;;;;;;;4.11;100.00;97728.09;5076732;28;20576;-63
2022/02/23 06:47:21;;;;;;;9.03;3.30;;;;;;;4.14;100.00;97735.53;5076803;28;20181;-63
2022/02/23 06:49:46;;;;;;;6.10;2.67;;;;;;;4.09;100.00;97731.81;5075954;28;20185;-64
2022/02/23 06:52:14;;;;;;;6.80;2.70;;;;;;;4.11;100.00;97737.66;5076269;28;20165;-63
2022/02/23 06:54:39;;;;;;;5.20;2.50;;;;;;;4.22;100.00;97741.69;5076138;28;20217;-63
2022/02/23 06:57:07;;;;;;;6.20;2.40;;;;;;;4.16;100.00;97743.97;5076225;28;20203;-63
2022/02/23 06:59:32;;;;;;;8.07;2.70;;;;;;;4.17;100.00;97745.59;5076213;28;20236;-63
2022/02/23 07:01:58;;;;;;;3.87;2.27;;;;;;;4.20;100.00;97747.03;5075819;28;20205;-63
2022/02/23 07:04:23;;;;;;;8.30;2.63;;;;;;;4.05;100.00;97746.88;5075938;28;20189;-63
2022/02/23 07:06:48;;;;;;;6.73;2.27;;;;;;;4.27;100.00;97753.22;5076090;28;20181;-64
2022/02/23 07:09:14;;;;;;;5.40;2.70;;;;;;;4.43;100.00;97754.97;5075673;28;20165;-63
2022/02/23 07:11:39;;;;;;;17.27;2.47;;;;;;;4.59;100.00;97757.53;5076143;28;20205;-64
2022/02/23 07:14:07;;;;;;;5.73;2.80;;;;;;;4.64;100.00;97750.06;5075772;28;20197;-65
2022/02/23 07:16:33;;;;;;;3.83;2.40;;;;;;;4.80;100.00;97759.59;5074308;28;20525;-64
2022/02/23 07:18:59;;;;;;;6.50;2.60;;;;;;;5.02;100.00;97758.91;5074232;28;20220;-64
2022/02/23 07:21:24;;;;;;;3.60;2.00;;;;;;;5.03;100.00;97761.34;5075322;28;20595;-65
2022/02/23 07:23:50;;;;;;;5.30;2.53;;;;;;;5.11;100.00;97765.69;5075615;28;20259;-64
2022/02/23 07:26:16;;;;;;;2.47;1.70;;;;;;;5.21;100.00;97763.72;5074405;28;20176;-64
2022/02/23 07:28:42;;;;;;;3.73;2.20;;;;;;;5.34;100.00;97768.38;5075732;28;20189;-64
2022/02/23 07:31:13;;;;;;;3.20;2.10;;;;;;;5.52;100.00;97775.94;5075615;28;20661;-64
2022/02/23 07:33:39;;;;;;;1.93;1.80;;;;;;;5.50;100.00;97770.91;5074065;28;20243;-65
2022/02/23 07:36:06;;;;;;;4.13;2.03;;;;;;;5.63;100.00;97781.53;5075021;28;20177;-64
2022/02/23 07:38:32;;;;;;;9.27;2.30;;;;;;;5.90;98.49;97780.31;5075274;28;20258;-64
2022/02/23 07:40:57;;;;;;;4.53;1.87;;;;;;;5.99;97.66;97781.84;5075383;28;20574;-64
2022/02/23 07:43:23;;;;;;;6.40;2.10;;;;;;;6.13;96.87;97781.09;5070607;28;20225;-64
2022/02/23 07:45:53;;;;;;;3.87;1.83;;;;;;;6.13;97.40;97777.72;5075059;28;20196;-64
2022/02/23 07:48:18;;;;;;;5.07;1.90;;;;;;;6.30;96.02;97786.97;5076328;28;20642;-64
2022/02/23 07:50:44;;;;;;;6.53;2.10;;;;;;;6.30;95.75;97784.38;5095512;28;20234;-66
2022/02/23 07:53:10;;;;;;;2.93;1.70;;;;;;;6.41;94.95;97788.41;5086874;28;20249;-64
2022/02/23 07:55:37;;;;;;;2.80;1.70;;;;;;;6.48;94.33;97789.28;5075196;28;20211;-65
2022/02/23 07:58:04;;;;;;;2.53;1.57;;;;;;;6.51;96.41;97791.56;5074744;28;20188;-64
2022/02/23 08:00:29;;;;;;;4.80;1.90;;;;;;;6.58;95.46;97790.66;5073287;28;20192;-65
2022/02/23 08:02:55;;;;;;;8.47;2.43;;;;;;;6.86;93.03;97801.31;5073162;28;20669;-63
2022/02/23 08:05:20;;;;;;;4.47;1.63;;;;;;;6.87;91.61;97804.72;5074035;28;20204;-63
2022/02/23 08:07:46;;;;;;;2.37;1.60;;;;;;;6.84;92.00;97797.28;5074558;28;20533;-63
2022/02/23 08:10:11;;;;;;;4.03;1.80;;;;;;;7.08;91.65;97800.44;5073670;28;20240;-64
2022/02/23 08:12:37;;;;;;;3.27;1.87;;;;;;;7.24;89.94;97809.09;5074015;28;20335;-63
2022/02/23 08:19:31;;;;;;;3.93;1.50;;;;;;;7.18;89.80;97808.00;5074937;28;20520;-64
2022/02/23 08:20:33;;;;;;;3.87;1.53;;;;;;;7.34;89.05;97809.63;5073557;28;20615;-64
2022/02/23 08:22:59;;;;;;;3.00;1.43;;;;;;;7.33;89.46;97808.00;5073439;28;20336;-64
2022/02/23 08:25:24;;;;;;;4.70;1.70;;;;;;;7.46;89.12;97803.78;5073127;28;20188;-65
2022/02/23 08:27:50;;;;;;;1.60;1.50;;;;;;;7.61;88.33;97802.94;5074468;28;20184;-65
2022/02/23 08:30:15;;;;;;;5.23;2.33;;;;;;;7.63;86.80;97800.94;5074208;28;20646;-65
2022/02/23 08:32:41;;;;;;;2.77;1.80;;;;;;;7.64;86.45;97798.13;5072658;28;20205;-65
2022/02/23 08:35:06;;;;;;;9.80;2.17;;;;;;;7.75;87.04;97805.50;5073165;28;20187;-65
2022/02/23 08:37:32;;;;;;;10.47;2.20;;;;;;;7.74;88.43;97798.69;5073923;28;20212;-64
2022/02/23 08:39:59;;;;;;;4.63;1.90;;;;;;;7.69;88.21;97801.00;5073842;28;20185;-65
2022/02/23 08:42:26;;;;;;;3.57;1.77;;;;;;;7.68;87.86;97804.63;5074050;28;20246;-66
2022/02/23 08:44:51;;;;;;;5.13;2.00;;;;;;;7.74;88.80;97801.28;5073277;28;20188;-66
2022/02/23 08:47:18;;;;;;;6.73;2.13;;;;;;;7.73;89.79;97798.84;5070291;28;20212;-65
2022/02/23 08:49:45;;;;;;;3.63;1.73;;;;;;;7.70;89.30;97807.03;5073064;28;20534;-65
2022/02/23 08:52:10;;;;;;;7.10;2.30;;;;;;;7.49;90.00;97800.78;5073679;28;20618;-65
2022/02/23 08:54:37;;;;;;;6.77;1.90;;;;;;;7.70;88.54;97809.66;5073699;28;20204;-65
2022/02/23 08:57:02;;;;;;;6.53;2.33;;;;;;;7.69;88.71;97808.84;5073210;28;20598;-65
2022/02/23 08:59:28;;;;;;;6.80;2.10;;;;;;;7.74;89.45;97809.13;5073342;28;20260;-64
2022/02/23 09:01:53;;;;;;;4.40;1.97;;;;;;;7.81;88.39;97802.16;5073940;28;20189;-64
2022/02/23 09:04:19;;;;;;;3.83;2.23;;;;;;;7.84;87.18;97801.81;5072765;28;20192;-65
2022/02/23 09:06:44;;;;;;;6.73;2.57;;;;;;;7.74;88.40;97803.09;5073981;28;20178;-65
2022/02/23 09:09:11;;;;;;;3.33;2.00;;;;;;;7.82;87.72;97806.38;5073743;28;20176;-65
2022/02/23 09:11:37;;;;;;;3.33;1.97;;;;;;;7.70;88.69;97801.81;5071887;28;20254;-65
2022/02/23 09:14:03;;;;;;;4.93;2.10;;;;;;;7.83;87.67;97805.41;5069068;28;20555;-65
2022/02/23 09:16:29;;;;;;;5.53;2.40;;;;;;;7.77;88.47;97794.88;5072890;28;20184;-64
2022/02/23 09:18:54;;;;;;;7.50;2.50;;;;;;;7.76;88.97;97796.69;5082933;28;20228;-64
2022/02/23 09:21:20;;;;;;;6.13;2.87;;;;;;;7.82;89.23;97789.91;5074803;28;20184;-65
2022/02/23 09:23:45;;;;;;;8.23;2.53;;;;;;;7.75;89.38;97794.25;5074441;28;20634;-64
2022/02/23 09:26:11;;;;;;;4.97;2.77;;;;;;;7.80;88.92;97792.69;5076447;28;20180;-64
2022/02/23 09:28:37;;;;;;;7.50;2.70;;;;;;;7.87;89.70;97793.59;5074701;28;20203;-65
2022/02/23 09:31:05;;;;;;;12.03;2.93;;;;;;;8.00;88.72;97792.94;5071643;28;20169;-65
2022/02/23 09:33:30;;;;;;;4.97;2.57;;;;;;;8.11;88.07;97794.25;5069191;28;20338;-64
2022/02/23 09:36:01;;;;;;;6.60;2.50;;;;;;;8.23;86.06;97797.97;5072315;28;20302;-64
2022/02/23 09:38:26;;;;;;;4.73;2.20;;;;;;;8.14;84.42;97805.09;5072778;28;20184;-65
2022/02/23 09:40:52;;;;;;;5.67;2.17;;;;;;;8.30;83.54;97806.72;5071563;28;20181;-64
2022/02/23 09:43:19;;;;;;;4.37;1.77;;;;;;;8.15;82.55;97803.31;5073132;28;20176;-65
2022/02/23 09:45:53;;;;;;;5.67;1.90;;;;;;;8.25;82.23;97804.63;5073088;28;20504;-64
2022/02/23 09:48:27;;;;;;;5.80;2.53;;;;;;;8.58;81.33;97801.53;5073033;28;20172;-65
2022/02/23 09:50:53;;;;;;;6.43;1.83;;;;;;;8.76;78.92;97801.88;5072435;28;20213;-65
2022/02/23 09:53:20;;;;;;;6.60;1.50;;;;;;;8.85;77.72;97797.31;5072051;28;20299;-64
2022/02/23 09:55:45;;;;;;;3.80;2.03;;;;;;;8.79;77.65;97800.69;5072693;28;20683;-64
2022/02/23 09:58:11;;;;;;;5.07;2.33;;;;;;;8.81;75.19;97796.06;5072546;28;20189;-64
2022/02/23 10:00:37;;;;;;;2.97;1.40;;;;;;;8.71;74.95;97785.94;5072454;28;20185;-65
2022/02/23 10:03:04;;;;;;;5.03;1.80;;;;;;;8.78;72.43;97794.66;5072318;28;20550;-64
2022/02/23 10:05:38;;;;;;;6.17;1.97;;;;;;;8.78;75.39;97792.03;5072612;28;20260;-65
2022/02/23 10:08:09;;;;;;;5.50;1.73;;;;;;;8.59;75.33;97792.69;5072727;28;20678;-64
2022/02/23 10:10:38;;;;;;;3.70;1.63;;;;;;;8.23;76.98;97795.38;5072534;28;20177;-64
2022/02/23 10:13:05;;;;;;;4.47;2.50;;;;;;;8.37;77.63;97798.94;5075209;28;20559;-65
2022/02/23 10:15:37;;;;;;;4.80;1.97;;;;;;;8.44;78.14;97795.38;5054500;28;20555;-65
2022/02/23 10:18:09;;;;;;;7.60;2.20;;;;;;;8.29;78.29;97795.44;5071257;28;20688;-65
2022/02/23 10:20:39;;;;;;;4.77;2.40;;;;;;;8.62;76.16;97795.75;5072169;28;20188;-65
2022/02/23 10:23:15;;;;;;;5.20;1.70;;;;;;;8.82;75.40;97798.50;5070456;28;20203;-65
2022/02/23 10:25:43;;;;;;;1.60;1.50;;;;;;;8.80;73.15;97792.66;5071262;28;20272;-65
2022/02/23 10:28:20;;;;;;;5.93;2.10;;;;;;;9.04;73.44;97794.81;5071801;28;20182;-65
2022/02/23 10:31:09;;;;;;;5.23;1.70;;;;;;;9.18;73.32;97791.31;5062395;28;20210;-65
2022/02/23 10:33:38;;;;;;;10.10;2.17;;;;;;;9.31;71.75;97795.78;5072137;28;20197;-63
2022/02/23 10:36:06;;;;;;;4.23;1.23;;;;;;;9.14;70.78;97795.28;5059985;28;20177;-65
2022/02/23 10:38:39;;;;;;;11.80;1.90;;;;;;;9.31;71.46;97795.78;5071454;28;20239;-63
2022/02/23 10:41:07;;;;;;;2.97;1.77;;;;;;;9.02;69.07;97794.22;5071246;28;20165;-63
2022/02/23 10:43:40;;;;;;;5.37;1.50;;;;;;;9.37;69.68;97789.78;5071364;28;20197;-63
2022/02/23 10:46:15;;;;;;;3.30;1.30;;;;;;;9.44;68.65;97785.38;5071731;28;20177;-63
2022/02/23 10:48:43;;;;;;;5.70;1.83;;;;;;;9.40;68.34;97781.56;5059976;28;20629;-63
2022/02/23 10:51:14;;;;;;;3.93;1.30;;;;;;;9.36;68.88;97787.38;5071483;28;20261;-63
2022/02/23 10:53:40;;;;;;;7.23;1.60;;;;;;;9.48;69.53;97785.78;5071205;28;20217;-63
2022/02/23 10:56:26;;;;;;;6.83;2.00;;;;;;;9.67;68.70;97777.22;5071845;28;20201;-63
2022/02/23 10:59:11;;;;;;;2.93;1.50;;;;;;;9.73;67.89;97775.63;5071361;28;20185;-63
2022/02/23 11:01:38;;;;;;;3.20;1.50;;;;;;;9.87;66.89;97774.66;5071700;28;20311;-63
2022/02/23 11:04:05;;;;;;;2.67;1.27;;;;;;;10.25;71.30;97769.75;5071353;28;20303;-64
2022/02/23 11:06:32;;;;;;;6.77;2.20;;;;;;;10.11;66.49;97763.66;5071318;28;20527;-64
2022/02/23 11:08:58;;;;;;;4.00;1.40;;;;;;;10.19;66.15;97762.69;5071737;28;20169;-63
2022/02/23 11:11:26;;;;;;;4.00;1.53;;;;;;;10.49;64.26;97771.78;5070469;28;20170;-64
2022/02/23 11:13:52;;;;;;;255.03;211.77;;;;;;;10.84;64.26;97764.50;5071466;28;20228;-63
2022/02/23 11:16:19;;;;;;;1585.20;963.70;;;;;;;11.22;62.46;97767.25;5071241;28;20209;-67
2022/02/23 11:18:47;;;;;;;1125.37;856.37;;;;;;;11.08;62.86;97763.06;5069726;28;20223;-63
2022/02/23 11:21:15;;;;;;;32.80;20.33;;;;;;;11.13;61.40;97773.72;5071712;28;20186;-64
2022/02/23 11:23:42;;;;;;;4.67;1.67;;;;;;;11.38;60.85;97769.41;5071721;28;20203;-65
2022/02/23 11:26:09;;;;;;;4.93;1.83;;;;;;;11.16;60.65;97768.06;5070947;28;20185;-66
2022/02/23 11:28:40;;;;;;;8.57;1.60;;;;;;;11.21;60.52;97763.00;5075292;28;20185;-66
2022/02/23 11:31:13;;;;;;;4.23;1.63;;;;;;;10.97;61.56;97759.25;5075164;28;20255;-64
2022/02/23 11:33:54;;;;;;;5.43;1.73;;;;;;;10.84;62.24;97754.00;5075511;28;20193;-65
2022/02/23 11:36:34;;;;;;;3.40;1.30;;;;;;;10.45;63.33;97748.78;5074870;28;20264;-65